Time;durP1;ratioP1;P1;durP2;ratioP2;P2;SDS_P1;SDS_P2;PMS_P1;PMS_P2;Temp;Humidity;BMP_temperature;BMP_pressure;BME280_temperature;BME280_humidity;BME280_pressure;Samples;Min_cycle;Max_cycle;Signal;HPM_P1;HPM_P2
2023/09/22 00:01:07;;;;;;;5.35;3.58;;;17.00;82.50;;;;;;9162603;19;20440;-70
2023/09/22 00:04:14;;;;;;;7.53;3.75;;;17.00;82.60;;;;;;9167788;19;20025;-68
2023/09/22 00:07:22;;;;;;;6.43;3.97;;;17.00;82.60;;;;;;9174158;19;20448;-68
2023/09/22 00:10:30;;;;;;;5.18;3.88;;;17.00;82.80;;;;;;9173661;19;20030;-70
2023/09/22 00:13:35;;;;;;;6.30;3.63;;;17.00;82.80;;;;;;9174804;19;20022;-68
2023/09/22 00:16:43;;;;;;;8.13;4.07;;;17.00;82.90;;;;;;9176428;19;20014;-68
2023/09/22 00:19:49;;;;;;;6.95;4.93;;;17.00;83.00;;;;;;9174891;19;20033;-70
2023/09/22 00:23:00;;;;;;;5.80;4.53;;;17.00;82.70;;;;;;9171275;19;20014;-69
2023/09/22 00:26:05;;;;;;;6.00;4.85;;;17.00;82.90;;;;;;9172511;19;20014;-68
2023/09/22 00:29:12;;;;;;;11.35;4.95;;;16.90;82.70;;;;;;9171383;19;20014;-68
2023/09/22 00:32:18;;;;;;;7.00;5.28;;;16.90;82.60;;;;;;9167513;19;20390;-69
2023/09/22 00:35:25;;;;;;;7.22;5.15;;;16.90;84.80;;;;;;9167697;19;20025;-69
2023/09/22 00:38:33;;;;;;;7.63;5.63;;;16.90;82.70;;;;;;9171238;19;20026;-68
2023/09/22 00:41:41;;;;;;;6.80;5.00;;;16.80;82.70;;;;;;9168403;19;20015;-68
2023/09/22 00:44:46;;;;;;;9.90;5.70;;;16.90;82.80;;;;;;9170391;19;20030;-67
2023/09/22 00:47:53;;;;;;;8.05;5.63;;;16.90;82.70;;;;;;9168637;19;20495;-68
2023/09/22 00:51:01;;;;;;;6.07;5.15;;;16.90;82.80;;;;;;9169335;19;20365;-68
2023/09/22 00:54:11;;;;;;;8.60;6.20;;;16.80;82.80;;;;;;9167914;19;20010;-70
2023/09/22 00:57:16;;;;;;;8.75;6.15;;;16.90;82.90;;;;;;9164087;19;20017;-67
2023/09/22 01:00:25;;;;;;;10.90;7.18;;;16.80;82.80;;;;;;9168228;19;20014;-68
2023/09/22 01:03:34;;;;;;;8.50;7.00;;;16.90;82.90;;;;;;9168823;19;20033;-69
2023/09/22 01:06:42;;;;;;;10.85;7.82;;;16.80;82.80;;;;;;9167106;19;20105;-67
2023/09/22 01:09:50;;;;;;;12.00;8.52;;;16.80;82.80;;;;;;9166650;19;20019;-68
2023/09/22 01:12:58;;;;;;;14.68;8.13;;;16.80;82.90;;;;;;9164788;19;20015;-68
2023/09/22 01:16:03;;;;;;;13.90;8.05;;;16.80;82.90;;;;;;9156117;19;20115;-68
2023/09/22 01:19:16;;;;;;;13.60;8.07;;;16.80;83.00;;;;;;9165678;19;20045;-67
2023/09/22 01:22:24;;;;;;;13.82;8.63;;;16.80;83.10;;;;;;9166571;19;20015;-67
2023/09/22 01:25:32;;;;;;;14.88;8.45;;;16.80;83.00;;;;;;9165689;19;20663;-68
2023/09/22 01:28:37;;;;;;;16.58;9.82;;;16.80;83.00;;;;;;9166401;19;20014;-69
2023/09/22 01:31:44;;;;;;;15.60;8.93;;;16.80;82.90;;;;;;9167801;19;20018;-68
2023/09/22 01:34:50;;;;;;;13.43;9.75;;;16.80;82.90;;;;;;9164378;19;20015;-69
2023/09/22 01:38:08;;;;;;;15.40;10.75;;;16.70;82.90;;;;;;9164228;19;20119;-68
2023/09/22 01:41:13;;;;;;;15.98;11.07;;;16.70;83.00;;;;;;9164488;19;20014;-68
2023/09/22 01:44:21;;;;;;;14.68;9.85;;;16.70;82.90;;;;;;9166231;19;20751;-68
2023/09/22 01:47:27;;;;;;;14.93;10.35;;;16.70;83.00;;;;;;9163826;19;20384;-68
2023/09/22 01:50:37;;;;;;;15.05;11.02;;;16.70;83.10;;;;;;9165801;19;20015;-68
2023/09/22 01:53:45;;;;;;;16.50;11.32;;;16.70;83.30;;;;;;9162590;19;20018;-68
2023/09/22 01:56:52;;;;;;;17.15;11.50;;;16.80;85.70;;;;;;9161449;19;20018;-68
2023/09/22 01:59:58;;;;;;;21.05;11.40;;;16.70;83.30;;;;;;9166002;19;20015;-68
2023/09/22 02:03:07;;;;;;;17.58;11.45;;;16.80;87.90;;;;;;9164632;19;20010;-68
2023/09/22 02:06:12;;;;;;;18.15;11.65;;;16.60;82.50;;;;;;9164790;19;20029;-68
2023/09/22 02:09:22;;;;;;;14.85;10.82;;;16.60;83.10;;;;;;9165445;19;20014;-68
2023/09/22 02:12:28;;;;;;;16.30;10.35;;;16.60;83.10;;;;;;9166251;19;20019;-68
2023/09/22 02:15:35;;;;;;;16.33;10.60;;;16.60;83.10;;;;;;9158181;19;20014;-68
2023/09/22 02:18:41;;;;;;;16.63;11.40;;;16.60;83.10;;;;;;9165809;19;20027;-69
2023/09/22 02:21:49;;;;;;;17.38;11.00;;;16.60;83.20;;;;;;9161753;19;20489;-68
2023/09/22 02:24:57;;;;;;;16.58;11.30;;;16.60;83.10;;;;;;9161214;19;20023;-68
2023/09/22 02:28:05;;;;;;;19.17;12.05;;;16.60;83.10;;;;;;9161376;19;20095;-68
2023/09/22 02:31:10;;;;;;;16.80;11.57;;;16.50;83.00;;;;;;9162554;19;20093;-67
2023/09/22 02:34:20;;;;;;;17.45;11.95;;;16.50;83.00;;;;;;9161679;19;20020;-67
2023/09/22 02:37:26;;;;;;;17.67;11.98;;;16.50;83.00;;;;;;9161954;19;20022;-67
2023/09/22 02:40:36;;;;;;;18.65;11.70;;;16.40;82.90;;;;;;9163251;19;20021;-68
2023/09/22 02:43:41;;;;;;;20.83;13.02;;;16.40;83.00;;;;;;9163234;19;20026;-67
2023/09/22 02:46:48;;;;;;;16.27;11.82;;;16.40;83.10;;;;;;9164084;19;20017;-69
2023/09/22 02:49:54;;;;;;;21.27;12.48;;;16.40;83.10;;;;;;9160175;19;20654;-68
2023/09/22 02:53:03;;;;;;;19.65;12.65;;;16.40;83.10;;;;;;9164084;19;20021;-69
2023/09/22 02:56:11;;;;;;;21.00;12.88;;;16.30;83.10;;;;;;9160512;19;20011;-67
2023/09/22 02:59:19;;;;;;;22.90;14.05;;;16.30;83.30;;;;;;9165074;19;20354;-68
2023/09/22 03:02:24;;;;;;;24.27;14.18;;;16.30;83.10;;;;;;9164551;19;20025;-70
2023/09/22 03:05:33;;;;;;;31.63;16.27;;;16.30;83.10;;;;;;9163712;19;20532;-69
2023/09/22 03:08:39;;;;;;;23.20;15.43;;;16.30;83.10;;;;;;9162317;19;20025;-67
2023/09/22 03:11:49;;;;;;;23.50;15.38;;;16.30;83.20;;;;;;9161993;19;20019;-68
2023/09/22 03:14:54;;;;;;;23.50;15.18;;;16.20;83.20;;;;;;9157103;19;20022;-67
2023/09/22 03:18:03;;;;;;;25.67;15.65;;;16.20;83.20;;;;;;9162196;19;22019;-68
2023/09/22 03:21:08;;;;;;;23.50;15.38;;;16.20;83.20;;;;;;9166494;19;20568;-67
2023/09/22 03:24:15;;;;;;;29.02;16.08;;;16.20;83.30;;;;;;9161717;19;20021;-69
2023/09/22 03:27:23;;;;;;;25.58;15.40;;;16.20;83.30;;;;;;9163353;19;20019;-68
2023/09/22 03:30:31;;;;;;;25.25;15.38;;;16.20;83.30;;;;;;9163287;19;20041;-68
2023/09/22 03:33:40;;;;;;;28.35;16.25;;;16.20;83.20;;;;;;9161438;19;20021;-68
2023/09/22 03:36:49;;;;;;;28.45;15.75;;;16.20;83.30;;;;;;9160563;19;20022;-68
2023/09/22 03:39:57;;;;;;;24.42;15.60;;;16.20;83.20;;;;;;9163318;19;20025;-68
2023/09/22 03:43:07;;;;;;;24.85;14.65;;;16.10;83.10;;;;;;9159839;19;20015;-69
2023/09/22 03:46:13;;;;;;;25.15;15.23;;;16.10;83.10;;;;;;9158442;19;20408;-68
2023/09/22 03:49:21;;;;;;;23.35;14.95;;;16.00;83.10;;;;;;9162066;19;20014;-68
2023/09/22 03:52:28;;;;;;;24.88;15.13;;;16.00;83.10;;;;;;9162011;19;20127;-68
2023/09/22 03:55:36;;;;;;;25.75;14.40;;;16.00;83.10;;;;;;9160166;19;20502;-68
2023/09/22 03:58:45;;;;;;;26.02;14.60;;;16.00;83.20;;;;;;9161012;19;20086;-68
2023/09/22 04:01:54;;;;;;;21.02;13.27;;;15.90;83.30;;;;;;9163828;19;20019;-67
2023/09/22 04:05:00;;;;;;;20.25;12.77;;;15.90;83.20;;;;;;9159703;19;20535;-67
2023/09/22 04:08:08;;;;;;;21.88;13.52;;;15.90;83.20;;;;;;9160500;19;20014;-68
2023/09/22 04:11:14;;;;;;;22.35;13.45;;;15.90;83.20;;;;;;9158976;19;20018;-68
2023/09/22 04:14:24;;;;;;;19.90;12.00;;;15.90;83.20;;;;;;9158935;19;20106;-68
2023/09/22 04:17:29;;;;;;;19.73;11.18;;;15.90;83.30;;;;;;9156820;19;20107;-68
2023/09/22 04:20:43;;;;;;;19.00;11.52;;;15.80;83.20;;;;;;9159119;19;20014;-68
2023/09/22 04:23:51;;;;;;;21.60;11.82;;;15.80;83.30;;;;;;9158682;19;20052;-68
2023/09/22 04:27:01;;;;;;;20.92;10.98;;;15.80;83.40;;;;;;9158373;19;20401;-68
2023/09/22 04:30:11;;;;;;;17.60;10.40;;;15.70;83.10;;;;;;9159045;19;20035;-68
2023/09/22 04:33:20;;;;;;;16.67;10.25;;;15.70;83.20;;;;;;9160189;19;20021;-68
2023/09/22 04:36:25;;;;;;;18.58;9.57;;;15.70;83.20;;;;;;9157982;19;20014;-67
2023/09/22 04:39:33;;;;;;;15.77;9.45;;;15.60;83.10;;;;;;9159658;19;20010;-67
2023/09/22 04:42:39;;;;;;;19.60;9.25;;;15.60;83.00;;;;;;9155812;19;20015;-67
2023/09/22 04:45:49;;;;;;;18.98;9.63;;;15.60;83.00;;;;;;9159627;19;20007;-69
2023/09/22 04:48:55;;;;;;;17.80;8.55;;;15.60;83.00;;;;;;9157933;19;20015;-68
2023/09/22 04:52:05;;;;;;;18.40;8.95;;;15.50;83.00;;;;;;9165828;19;20014;-67
2023/09/22 04:55:11;;;;;;;18.23;9.13;;;15.50;83.10;;;;;;9168732;19;20028;-69
2023/09/22 04:58:19;;;;;;;18.88;9.02;;;15.40;83.00;;;;;;9165495;19;20063;-67
2023/09/22 05:01:28;;;;;;;16.50;8.82;;;15.40;83.10;;;;;;9167492;19;20053;-67
2023/09/22 05:04:35;;;;;;;16.38;9.48;;;15.40;83.10;;;;;;9165364;19;20769;-67
2023/09/22 05:07:41;;;;;;;18.83;10.02;;;15.30;83.00;;;;;;9164326;19;20796;-67
2023/09/22 05:10:52;;;;;;;19.80;9.77;;;15.30;83.10;;;;;;9166629;19;20281;-67
2023/09/22 05:13:57;;;;;;;15.35;8.35;;;15.30;83.20;;;;;;9166781;19;20091;-67
2023/09/22 05:17:07;;;;;;;20.95;10.40;;;15.30;83.30;;;;;;9163530;19;20021;-66
2023/09/22 05:20:14;;;;;;;18.90;9.40;;;15.30;83.40;;;;;;9168708;19;20078;-67
2023/09/22 05:23:23;;;;;;;17.35;9.98;;;15.20;83.30;;;;;;9166936;19;20325;-67
2023/09/22 05:26:28;;;;;;;18.75;10.23;;;15.20;83.30;;;;;;9168140;19;20014;-67
2023/09/22 05:29:35;;;;;;;24.48;11.30;;;15.20;84.00;;;;;;9169365;19;20034;-68
2023/09/22 05:32:43;;;;;;;19.88;9.70;;;15.20;83.40;;;;;;9167752;19;20018;-67
2023/09/22 05:35:51;;;;;;;23.75;12.02;;;15.20;83.40;;;;;;9167406;19;20571;-68
2023/09/22 05:38:56;;;;;;;23.63;9.68;;;15.20;83.40;;;;;;9166051;19;20025;-67
2023/09/22 05:42:03;;;;;;;19.80;9.52;;;15.10;83.30;;;;;;9167545;19;20011;-67
2023/09/22 05:45:10;;;;;;;19.90;10.25;;;15.10;83.40;;;;;;9167940;19;20022;-68
2023/09/22 05:48:21;;;;;;;17.85;9.68;;;15.10;83.60;;;;;;9169023;19;20030;-68
2023/09/22 05:51:26;;;;;;;19.45;8.98;;;15.10;83.50;;;;;;9169420;19;20029;-68
2023/09/22 05:54:33;;;;;;;17.48;9.07;;;15.00;83.50;;;;;;9166754;19;20007;-69
2023/09/22 05:57:39;;;;;;;20.13;8.38;;;15.10;83.40;;;;;;9167030;19;20086;-69
2023/09/22 06:00:46;;;;;;;18.13;9.27;;;15.10;83.60;;;;;;9165870;19;20021;-68
2023/09/22 06:03:54;;;;;;;16.90;8.63;;;15.00;83.50;;;;;;9165502;19;20018;-68
2023/09/22 06:07:02;;;;;;;17.92;8.57;;;15.00;83.60;;;;;;9166349;19;20007;-68
2023/09/22 06:10:09;;;;;;;15.50;8.30;;;15.00;83.60;;;;;;9166976;19;20480;-69
2023/09/22 06:13:17;;;;;;;19.05;9.38;;;15.00;83.70;;;;;;9168039;19;20029;-69
2023/09/22 06:16:24;;;;;;;17.10;7.97;;;15.00;83.60;;;;;;9162972;19;20045;-67
2023/09/22 06:19:34;;;;;;;26.15;8.82;;;15.00;83.70;;;;;;9164298;19;20022;-67
2023/09/22 06:22:39;;;;;;;20.65;7.60;;;15.00;83.70;;;;;;9167422;19;20024;-68
2023/09/22 06:25:50;;;;;;;20.55;7.32;;;15.00;83.70;;;;;;9165657;19;20023;-68
2023/09/22 06:28:56;;;;;;;14.32;7.50;;;15.00;83.80;;;;;;9165822;19;20014;-67
2023/09/22 06:32:04;;;;;;;20.15;7.40;;;15.00;83.80;;;;;;9165305;19;20570;-68
2023/09/22 06:35:12;;;;;;;15.43;7.40;;;15.00;83.80;;;;;;9164853;19;20106;-68
2023/09/22 06:38:19;;;;;;;13.50;6.97;;;15.10;83.90;;;;;;9165810;19;20007;-68
2023/09/22 06:41:25;;;;;;;15.75;7.38;;;15.10;83.90;;;;;;9167880;19;20017;-69
2023/09/22 06:44:32;;;;;;;15.77;7.95;;;15.10;84.00;;;;;;9167624;19;20014;-68
2023/09/22 06:47:38;;;;;;;16.83;7.25;;;15.10;84.00;;;;;;9163372;19;20020;-69
2023/09/22 06:50:51;;;;;;;15.23;7.13;;;15.00;83.90;;;;;;9164910;19;20017;-70
2023/09/22 06:53:57;;;;;;;12.70;6.28;;;15.10;84.00;;;;;;9163421;19;20107;-70
2023/09/22 06:57:05;;;;;;;12.43;6.43;;;15.10;84.00;;;;;;9165324;19;20018;-72
2023/09/22 07:00:16;;;;;;;11.48;6.10;;;15.10;84.00;;;;;;9163172;19;20022;-71
2023/09/22 07:03:23;;;;;;;9.52;5.82;;;15.10;84.10;;;;;;9166564;19;20014;-71
2023/09/22 07:06:33;;;;;;;13.23;5.88;;;15.20;84.10;;;;;;9166977;19;20021;-71
2023/09/22 07:09:40;;;;;;;9.82;5.35;;;15.20;84.20;;;;;;9166997;19;20796;-70
2023/09/22 07:12:46;;;;;;;12.65;5.40;;;15.20;84.20;;;;;;9167361;19;20040;-70
2023/09/22 07:15:53;;;;;;;13.95;4.88;;;15.30;84.30;;;;;;9161311;19;20010;-69
2023/09/22 07:18:59;;;;;;;11.73;4.03;;;15.30;84.30;;;;;;9162353;19;20056;-74
2023/09/22 07:22:10;;;;;;;11.02;4.05;;;15.30;84.30;;;;;;9165615;19;20022;-72
2023/09/22 07:25:16;;;;;;;7.45;3.47;;;15.40;84.30;;;;;;9161310;19;20022;-71
2023/09/22 07:28:25;;;;;;;7.68;2.97;;;15.40;84.30;;;;;;9163160;19;20011;-70
2023/09/22 07:31:30;;;;;;;7.35;2.70;;;15.50;84.30;;;;;;9160380;19;20613;-70
2023/09/22 07:34:38;;;;;;;6.70;2.67;;;15.50;84.30;;;;;;9163258;19;20014;-72
2023/09/22 07:37:47;;;;;;;10.07;2.83;;;15.50;84.20;;;;;;9163726;19;20014;-71
2023/09/22 07:40:54;;;;;;;12.05;3.35;;;15.60;84.30;;;;;;9164036;19;20029;-71
2023/09/22 07:43:59;;;;;;;15.10;2.45;;;15.70;84.40;;;;;;9162425;19;20014;-69
2023/09/22 07:47:10;;;;;;;8.30;2.45;;;15.70;84.30;;;;;;9162049;19;20661;-72
2023/09/22 07:50:15;;;;;;;5.15;1.85;;;15.80;84.40;;;;;;9163376;19;20053;-70
2023/09/22 07:53:25;;;;;;;7.25;2.38;;;15.90;84.40;;;;;;9164597;19;20018;-71
2023/09/22 07:56:32;;;;;;;12.38;2.00;;;16.00;84.30;;;;;;9162646;19;20022;-69
2023/09/22 07:59:41;;;;;;;5.65;2.05;;;16.00;84.10;;;;;;9162531;19;20018;-69
2023/09/22 08:02:47;;;;;;;3.75;1.73;;;16.10;84.00;;;;;;9163591;19;20396;-72
2023/09/22 08:05:55;;;;;;;3.78;1.85;;;16.10;83.90;;;;;;9163874;19;20010;-70
2023/09/22 08:09:05;;;;;;;4.75;1.80;;;16.10;83.80;;;;;;9165120;19;20011;-73
2023/09/22 08:12:12;;;;;;;2.92;1.90;;;16.10;83.70;;;;;;9163602;19;20014;-69
2023/09/22 08:15:18;;;;;;;4.32;1.50;;;16.20;83.70;;;;;;9158358;19;20018;-69
2023/09/22 08:18:26;;;;;;;5.60;1.67;;;16.20;83.60;;;;;;9161187;19;20021;-66
2023/09/22 08:21:31;;;;;;;2.63;1.50;;;16.30;83.50;;;;;;9163597;19;20027;-69
2023/09/22 08:24:41;;;;;;;9.48;1.92;;;16.30;83.50;;;;;;9162919;19;20530;-67
2023/09/22 08:27:48;;;;;;;2.33;1.40;;;16.30;83.40;;;;;;9165919;19;20026;-70
2023/09/22 08:30:57;;;;;;;8.20;1.70;;;16.40;83.30;;;;;;9166023;19;20586;-70
2023/09/22 08:34:03;;;;;;;4.07;1.83;;;16.40;83.30;;;;;;9166518;19;20022;-70
2023/09/22 08:37:11;;;;;;;3.80;1.30;;;16.50;83.20;;;;;;9168164;19;20018;-69
2023/09/22 08:40:19;;;;;;;4.45;1.73;;;16.50;83.10;;;;;;9165162;19;20081;-69
2023/09/22 08:43:27;;;;;;;7.75;1.48;;;16.60;83.10;;;;;;9170937;19;20026;-74
2023/09/22 08:46:35;;;;;;;2.33;1.27;;;16.60;82.90;;;;;;9170534;19;20639;-70
2023/09/22 08:49:42;;;;;;;5.57;1.48;;;16.60;82.80;;;;;;9169733;19;20030;-70
2023/09/22 08:52:51;;;;;;;2.20;1.27;;;16.70;82.90;;;;;;9171284;19;20475;-67
2023/09/22 08:56:04;;;;;;;5.13;2.40;;;16.70;82.70;;;;;;9170196;19;20029;-67
2023/09/22 08:59:10;;;;;;;4.50;1.30;;;16.80;82.80;;;;;;9168133;19;20354;-71
2023/09/22 09:02:18;;;;;;;4.28;1.50;;;16.90;82.80;;;;;;9169052;19;20015;-71
2023/09/22 09:05:27;;;;;;;6.72;1.95;;;16.90;82.60;;;;;;9168257;19;20014;-70
2023/09/22 09:08:34;;;;;;;5.15;1.70;;;17.00;82.60;;;;;;9169907;19;20025;-69
2023/09/22 09:11:59;;;;;;;7.70;1.38;;;17.00;82.40;;;;;;9169709;19;20017;-67
2023/09/22 09:15:08;;;;;;;2.08;1.27;;;17.10;82.40;;;;;;9165138;19;20017;-69
2023/09/22 09:18:16;;;;;;;4.55;1.25;;;17.20;82.40;;;;;;9167492;19;20010;-70
2023/09/22 09:21:24;;;;;;;1.80;1.00;;;17.30;82.50;;;;;;9165815;19;20018;-67
2023/09/22 09:24:30;;;;;;;4.93;0.93;;;17.40;82.30;;;;;;9165981;19;20018;-69
2023/09/22 09:27:40;;;;;;;4.90;1.00;;;17.50;82.20;;;;;;9168196;19;20019;-68
2023/09/22 09:30:53;;;;;;;5.95;0.90;;;17.60;81.90;;;;;;9166734;19;20111;-70
2023/09/22 09:34:00;;;;;;;3.03;1.23;;;17.70;81.70;;;;;;9167107;19;20006;-70
2023/09/22 09:37:13;;;;;;;2.33;1.00;;;17.90;81.60;;;;;;9166772;19;20465;-72
2023/09/22 09:40:25;;;;;;;4.03;1.13;;;18.10;82.00;;;;;;9168372;19;20413;-70
2023/09/22 09:43:34;;;;;;;1.88;0.73;;;18.20;81.20;;;;;;9170514;19;20403;-70
2023/09/22 09:46:43;;;;;;;2.55;0.80;;;18.40;81.00;;;;;;9172780;19;20017;-69
2023/09/22 09:49:52;;;;;;;3.85;1.02;;;18.50;80.90;;;;;;9169924;19;20007;-68
2023/09/22 09:53:05;;;;;;;8.32;1.55;;;18.70;80.80;;;;;;9166528;19;20022;-68
2023/09/22 09:56:14;;;;;;;2.00;0.90;;;18.90;80.40;;;;;;9168407;19;20044;-69
2023/09/22 09:59:25;;;;;;;2.28;1.00;;;19.00;80.00;;;;;;9167288;19;20017;-69
2023/09/22 10:02:31;;;;;;;3.53;0.70;;;19.20;79.50;;;;;;9165404;19;20022;-68
2023/09/22 10:05:40;;;;;;;2.47;0.80;;;19.30;79.30;;;;;;9164870;19;20045;-70
2023/09/22 10:08:45;;;;;;;3.78;0.73;;;19.40;79.00;;;;;;9166928;19;20043;-70
2023/09/22 10:11:53;;;;;;;2.83;0.77;;;19.40;78.50;;;;;;9165961;19;20030;-69
2023/09/22 10:15:04;;;;;;;2.67;0.90;;;19.50;78.20;;;;;;9161683;19;20014;-70
2023/09/22 10:18:17;;;;;;;2.50;0.80;;;19.50;77.90;;;;;;9167029;19;20026;-72
2023/09/22 10:21:37;;;;;;;2.53;0.60;;;19.60;77.90;;;;;;9165349;19;20018;-68
2023/09/22 10:24:45;;;;;;;2.17;0.50;;;19.70;77.50;;;;;;9165954;19;20412;-68
2023/09/22 10:28:05;;;;;;;5.47;1.10;;;19.70;77.50;;;;;;9167425;19;20010;-71
2023/09/22 10:31:18;;;;;;;2.70;0.77;;;19.80;77.40;;;;;;9166725;19;20022;-67
2023/09/22 10:34:49;;;;;;;2.53;0.50;;;20.00;77.30;;;;;;9166352;19;20011;-68
2023/09/22 10:38:02;;;;;;;1.85;0.90;;;20.10;76.90;;;;;;9165035;19;20074;-68
2023/09/22 10:41:11;;;;;;;3.85;0.80;;;20.30;76.70;;;;;;9162805;19;20010;-68
2023/09/22 10:44:19;;;;;;;2.75;0.68;;;20.40;76.60;;;;;;9165085;19;20010;-70
2023/09/22 10:47:28;;;;;;;2.65;0.73;;;20.50;76.30;;;;;;9163965;19;20117;-69
2023/09/22 10:50:38;;;;;;;2.53;0.60;;;20.70;76.80;;;;;;9163225;19;20015;-70
2023/09/22 10:53:56;;;;;;;4.38;0.52;;;20.80;76.00;;;;;;9161996;19;20093;-67
2023/09/22 10:57:04;;;;;;;2.38;0.80;;;20.90;75.60;;;;;;9165341;19;20010;-68
2023/09/22 11:00:16;;;;;;;1.52;0.80;;;21.10;75.30;;;;;;9164498;19;20026;-68
2023/09/22 11:03:26;;;;;;;;;;;21.10;74.80;;;;;;9163959;19;20026;-66
2023/09/22 11:06:31;;;;;;;0.82;0.45;;;21.10;75.30;;;;;;9163770;19;19938;-67
2023/09/22 11:09:39;;;;;;;1.73;0.82;;;21.20;74.70;;;;;;9156265;19;20086;-65
2023/09/22 11:12:49;;;;;;;0.98;0.40;;;21.10;74.40;;;;;;9165042;19;20015;-67
2023/09/22 11:15:59;;;;;;;1.42;0.50;;;21.10;74.00;;;;;;9158441;19;20809;-67
2023/09/22 11:19:11;;;;;;;1.45;0.40;;;21.10;74.00;;;;;;9164825;19;20102;-68
2023/09/22 11:22:19;;;;;;;2.03;0.80;;;21.20;73.70;;;;;;9162734;19;20026;-74
2023/09/22 11:25:26;;;;;;;2.85;0.60;;;21.20;73.70;;;;;;9158873;19;20480;-68
2023/09/22 11:28:34;;;;;;;3.03;0.95;;;21.20;73.80;;;;;;9157085;19;20023;-67
2023/09/22 11:31:51;;;;;;;1.48;0.70;;;21.10;72.90;;;;;;9158896;19;20761;-69
2023/09/22 11:35:01;;;;;;;1.95;0.77;;;21.10;72.50;;;;;;9156111;19;20019;-68
2023/09/22 11:38:28;;;;;;;3.65;0.85;;;21.10;72.70;;;;;;9156066;19;20018;-67
2023/09/22 11:41:36;;;;;;;1.95;0.80;;;21.00;72.40;;;;;;9155228;19;20022;-67
2023/09/22 11:44:41;;;;;;;2.22;0.70;;;21.00;72.30;;;;;;9157255;19;20029;-67
2023/09/22 11:47:49;;;;;;;2.28;0.60;;;20.80;72.10;;;;;;9157412;19;20018;-68
2023/09/22 11:51:01;;;;;;;4.07;1.17;;;20.80;72.00;;;;;;9155335;19;20841;-68
2023/09/22 11:54:08;;;;;;;1.38;0.70;;;20.80;71.80;;;;;;9153445;19;20022;-67
2023/09/22 11:57:14;;;;;;;4.32;0.70;;;20.70;72.00;;;;;;9156295;19;20021;-67
2023/09/22 12:00:22;;;;;;;5.97;1.08;;;20.50;71.80;;;;;;9158634;19;20026;-68
2023/09/22 12:03:27;;;;;;;1.17;0.47;;;20.50;71.80;;;;;;9169695;19;20021;-67
2023/09/22 12:06:40;;;;;;;4.13;0.85;;;20.40;71.70;;;;;;9170204;19;20049;-68
2023/09/22 12:09:46;;;;;;;1.40;0.85;;;20.30;71.60;;;;;;9169426;19;20112;-69
2023/09/22 12:12:53;;;;;;;2.15;0.60;;;20.30;71.70;;;;;;9167545;19;20022;-67
2023/09/22 12:15:59;;;;;;;3.95;0.85;;;20.20;71.70;;;;;;9167833;19;20068;-67
2023/09/22 12:19:06;;;;;;;1.20;0.60;;;20.20;71.60;;;;;;9170904;19;20018;-68
2023/09/22 12:22:14;;;;;;;2.15;0.80;;;20.10;71.50;;;;;;9168704;19;20010;-68
2023/09/22 12:25:22;;;;;;;3.53;0.52;;;20.10;71.30;;;;;;9171119;19;20019;-70
2023/09/22 12:28:27;;;;;;;1.85;0.65;;;19.90;71.30;;;;;;9170975;19;20017;-70
2023/09/22 12:31:35;;;;;;;2.28;0.77;;;19.80;71.30;;;;;;9172416;19;20029;-67
2023/09/22 12:34:40;;;;;;;2.65;0.77;;;19.80;71.30;;;;;;9171301;19;20457;-67
2023/09/22 12:37:52;;;;;;;1.42;0.70;;;19.70;71.30;;;;;;9168723;19;20477;-69
2023/09/22 12:40:58;;;;;;;4.65;0.70;;;19.70;71.40;;;;;;9169326;19;20025;-70
2023/09/22 12:44:06;;;;;;;3.35;0.50;;;19.60;71.50;;;;;;9169894;19;20468;-66
2023/09/22 12:47:12;;;;;;;2.33;0.60;;;19.60;71.60;;;;;;9169568;19;20086;-69
2023/09/22 12:50:19;;;;;;;1.55;0.70;;;19.60;71.50;;;;;;9169493;19;20045;-67
2023/09/22 12:53:28;;;;;;;5.63;0.75;;;19.50;71.40;;;;;;9171235;19;20007;-68
2023/09/22 12:56:36;;;;;;;0.80;0.50;;;19.50;71.40;;;;;;9169923;19;20021;-66
2023/09/22 12:59:41;;;;;;;6.13;1.33;;;19.40;71.50;;;;;;9171599;19;20019;-67
2023/09/22 13:02:49;;;;;;;2.78;0.70;;;19.40;71.60;;;;;;9169780;19;20015;-69
2023/09/22 13:05:56;;;;;;;2.83;0.85;;;19.40;71.60;;;;;;9168799;19;20015;-67
2023/09/22 13:09:07;;;;;;;2.47;0.70;;;19.40;71.60;;;;;;9167954;19;20058;-68
2023/09/22 13:12:12;;;;;;;1.67;1.20;;;19.50;72.10;;;;;;9165302;19;20015;-67
2023/09/22 13:15:22;;;;;;;2.47;1.00;;;19.50;71.60;;;;;;9165947;19;20019;-67
2023/09/22 13:18:28;;;;;;;2.30;0.60;;;19.50;71.50;;;;;;9168897;19;20026;-69
2023/09/22 13:21:35;;;;;;;1.13;0.52;;;19.50;71.40;;;;;;9167680;19;20759;-66
2023/09/22 13:24:44;;;;;;;1.30;0.70;;;19.60;71.40;;;;;;9164315;19;20522;-68
2023/09/22 13:27:51;;;;;;;1.77;0.65;;;19.60;71.30;;;;;;9165903;19;20025;-67
2023/09/22 13:30:57;;;;;;;1.23;0.70;;;19.70;71.50;;;;;;9166592;19;20044;-68
2023/09/22 13:34:04;;;;;;;0.40;0.40;;;19.80;71.20;;;;;;9166732;19;20049;-67
2023/09/22 13:37:11;;;;;;;4.13;0.88;;;19.90;71.10;;;;;;9167009;19;20018;-67
2023/09/22 13:40:21;;;;;;;3.42;0.77;;;20.00;70.90;;;;;;9169348;19;20248;-67
2023/09/22 13:43:28;;;;;;;2.30;0.60;;;20.10;70.60;;;;;;9163560;19;20525;-67
2023/09/22 13:46:36;;;;;;;1.13;0.60;;;20.10;70.50;;;;;;9166751;19;20484;-67
2023/09/22 13:49:42;;;;;;;0.77;0.70;;;20.20;70.40;;;;;;9163479;19;20441;-69
2023/09/22 13:52:49;;;;;;;2.78;0.60;;;20.30;70.30;;;;;;9164333;19;20022;-68
2023/09/22 13:55:57;;;;;;;0.47;0.40;;;20.30;70.20;;;;;;9161705;19;20559;-67
2023/09/22 13:59:05;;;;;;;0.85;0.45;;;20.40;70.00;;;;;;9161066;19;20267;-67
2023/09/22 14:02:11;;;;;;;0.93;0.73;;;20.40;70.00;;;;;;9160569;19;20014;-67
2023/09/22 14:05:18;;;;;;;1.52;0.52;;;20.40;69.90;;;;;;9158571;19;20631;-67
2023/09/22 14:08:24;;;;;;;0.98;0.68;;;20.50;69.80;;;;;;9162565;19;20070;-66
2023/09/22 14:11:34;;;;;;;1.17;0.52;;;20.50;69.70;;;;;;9160645;19;20698;-66
2023/09/22 14:14:39;;;;;;;2.83;1.10;;;20.60;69.50;;;;;;9158453;19;20015;-67
2023/09/22 14:17:46;;;;;;;3.22;0.50;;;20.60;69.50;;;;;;9167270;19;20386;-66
2023/09/22 14:20:52;;;;;;;1.33;0.70;;;20.70;69.50;;;;;;9164248;19;20027;-68
2023/09/22 14:23:59;;;;;;;2.00;0.52;;;20.70;69.40;;;;;;9162437;19;20015;-66
2023/09/22 14:27:07;;;;;;;4.30;0.70;;;20.70;69.20;;;;;;9165733;19;20026;-68
2023/09/22 14:30:15;;;;;;;2.90;0.40;;;20.70;68.90;;;;;;9166705;19;20018;-68
2023/09/22 14:33:20;;;;;;;2.03;0.52;;;20.80;69.00;;;;;;9165445;19;20015;-67
2023/09/22 14:36:28;;;;;;;4.45;0.88;;;20.70;68.80;;;;;;9164071;19;20022;-67
2023/09/22 14:39:35;;;;;;;3.35;0.80;;;20.70;68.70;;;;;;9164841;19;20023;-67
2023/09/22 14:42:45;;;;;;;1.52;0.65;;;20.70;68.70;;;;;;9163989;19;20104;-66
2023/09/22 14:45:51;;;;;;;3.75;0.80;;;20.80;68.60;;;;;;9164519;19;20014;-67
2023/09/22 14:48:58;;;;;;;2.42;0.73;;;20.70;68.50;;;;;;9164770;19;20029;-68
2023/09/22 14:52:04;;;;;;;1.92;0.73;;;20.70;68.30;;;;;;9162920;19;20015;-67
2023/09/22 14:55:12;;;;;;;1.40;0.50;;;20.70;68.30;;;;;;9165606;19;20484;-69
2023/09/22 14:58:20;;;;;;;1.77;0.82;;;20.70;68.20;;;;;;9165365;19;20079;-69
2023/09/22 15:01:27;;;;;;;1.55;0.65;;;20.60;68.00;;;;;;9163203;19;20041;-69
2023/09/22 15:04:32;;;;;;;1.40;0.50;;;20.60;68.20;;;;;;9159854;19;20014;-69
2023/09/22 15:07:40;;;;;;;2.75;0.88;;;20.50;68.20;;;;;;9164716;19;20022;-69
2023/09/22 15:10:54;;;;;;;2.45;0.95;;;20.50;68.20;;;;;;9166136;19;20798;-69
2023/09/22 15:14:04;;;;;;;2.17;0.70;;;20.50;68.10;;;;;;9162785;19;20006;-67
2023/09/22 15:17:12;;;;;;;4.15;0.80;;;20.40;68.10;;;;;;9160162;19;20014;-70
2023/09/22 15:20:19;;;;;;;0.90;0.50;;;20.40;68.20;;;;;;9162356;19;20014;-67
2023/09/22 15:23:25;;;;;;;2.10;0.65;;;20.40;68.30;;;;;;9159492;19;20090;-69
2023/09/22 15:26:32;;;;;;;2.10;0.60;;;20.30;68.30;;;;;;9164509;19;20014;-69
2023/09/22 15:29:40;;;;;;;3.22;0.80;;;20.30;68.30;;;;;;9164503;19;20074;-70
2023/09/22 15:32:48;;;;;;;2.95;0.80;;;20.30;68.80;;;;;;9164356;19;20014;-68
2023/09/22 15:35:55;;;;;;;4.35;0.80;;;20.30;68.30;;;;;;9160745;19;20018;-68
2023/09/22 15:39:04;;;;;;;0.80;0.50;;;20.30;68.30;;;;;;9162105;19;20073;-69
2023/09/22 15:42:09;;;;;;;2.00;0.77;;;20.20;68.20;;;;;;9161319;19;20494;-68
2023/09/22 15:45:21;;;;;;;4.43;0.90;;;20.20;68.20;;;;;;9161707;19;20022;-69
2023/09/22 15:48:29;;;;;;;2.83;1.15;;;20.20;68.30;;;;;;9162343;19;20011;-66
2023/09/22 15:51:36;;;;;;;2.33;0.80;;;20.10;68.30;;;;;;9155424;19;20010;-72
2023/09/22 15:54:42;;;;;;;1.15;0.82;;;20.10;68.40;;;;;;9155873;19;20548;-67
2023/09/22 15:57:49;;;;;;;3.67;1.00;;;20.00;68.50;;;;;;9153950;19;20018;-69
2023/09/22 16:00:58;;;;;;;1.75;0.80;;;20.00;68.60;;;;;;9155532;19;20029;-68
2023/09/22 16:04:06;;;;;;;1.35;0.80;;;20.00;68.70;;;;;;9158412;19;20022;-69
2023/09/22 16:07:11;;;;;;;4.38;0.73;;;19.90;68.70;;;;;;9160855;19;20018;-67
2023/09/22 16:10:20;;;;;;;1.15;0.68;;;19.90;68.80;;;;;;9158922;19;20424;-70